sensor_id;sensor_type;location;lat;lon;timestamp;pressure;altitude;pressure_sealevel;temperature;humidity
45040;BME280;30778;53.574;7.770;2024-02-26T00:01:43;100416.81;;;0.48;58.35
45040;BME280;30778;53.574;7.770;2024-02-26T00:04:10;100419.34;;;0.53;58.34
45040;BME280;30778;53.574;7.770;2024-02-26T00:06:38;100420.16;;;0.59;58.14
45040;BME280;30778;53.574;7.770;2024-02-26T00:09:06;100416.66;;;0.69;58.19
45040;BME280;30778;53.574;7.770;2024-02-26T00:11:32;100418.28;;;0.83;58.41
45040;BME280;30778;53.574;7.770;2024-02-26T00:14:00;100415.63;;;0.92;58.00
45040;BME280;30778;53.574;7.770;2024-02-26T00:16:27;100413.91;;;0.96;57.76
45040;BME280;30778;53.574;7.770;2024-02-26T00:18:53;100415.53;;;1.06;57.73
45040;BME280;30778;53.574;7.770;2024-02-26T00:21:18;100415.47;;;1.14;57.92
45040;BME280;30778;53.574;7.770;2024-02-26T00:23:44;100412.88;;;1.17;57.48
45040;BME280;30778;53.574;7.770;2024-02-26T00:26:09;100406.78;;;1.25;57.40
45040;BME280;30778;53.574;7.770;2024-02-26T00:28:36;100408.56;;;1.19;57.21
45040;BME280;30778;53.574;7.770;2024-02-26T00:31:02;100409.50;;;1.11;57.68
45040;BME280;30778;53.574;7.770;2024-02-26T00:33:27;100411.19;;;1.14;57.95
45040;BME280;30778;53.574;7.770;2024-02-26T00:35:58;100409.41;;;1.24;57.96
45040;BME280;30778;53.574;7.770;2024-02-26T00:38:23;100411.97;;;1.24;57.70
45040;BME280;30778;53.574;7.770;2024-02-26T00:40:49;100411.00;;;1.34;57.75
45040;BME280;30778;53.574;7.770;2024-02-26T00:43:14;100411.94;;;1.25;58.13
45040;BME280;30778;53.574;7.770;2024-02-26T00:45:40;100407.63;;;1.29;57.85
45040;BME280;30778;53.574;7.770;2024-02-26T00:48:05;100411.84;;;1.41;57.92
45040;BME280;30778;53.574;7.770;2024-02-26T00:50:32;100416.03;;;1.51;57.75
45040;BME280;30778;53.574;7.770;2024-02-26T00:52:59;100418.63;;;1.51;57.76
45040;BME280;30778;53.574;7.770;2024-02-26T00:55:24;100412.63;;;1.49;57.46
45040;BME280;30778;53.574;7.770;2024-02-26T00:57:50;100413.47;;;1.51;57.39
45040;BME280;30778;53.574;7.770;2024-02-26T01:00:16;100407.38;;;1.57;57.34
45040;BME280;30778;53.574;7.770;2024-02-26T01:02:41;100415.06;;;1.63;57.33
45040;BME280;30778;53.574;7.770;2024-02-26T01:05:08;100418.53;;;1.57;57.47
45040;BME280;30778;53.574;7.770;2024-02-26T01:07:36;100413.47;;;1.51;57.58
45040;BME280;30778;53.574;7.770;2024-02-26T01:10:02;100419.41;;;1.56;57.54
45040;BME280;30778;53.574;7.770;2024-02-26T01:12:30;100425.34;;;1.64;57.00
45040;BME280;30778;53.574;7.770;2024-02-26T01:14:56;100421.94;;;1.61;57.12
45040;BME280;30778;53.574;7.770;2024-02-26T01:17:21;100428.94;;;1.49;57.01
45040;BME280;30778;53.574;7.770;2024-02-26T01:19:47;100423.88;;;1.36;57.38
45040;BME280;30778;53.574;7.770;2024-02-26T01:22:12;100424.00;;;1.19;57.49
45040;BME280;30778;53.574;7.770;2024-02-26T01:24:38;100421.44;;;1.19;57.46
45040;BME280;30778;53.574;7.770;2024-02-26T01:27:04;100421.53;;;1.09;57.54
45040;BME280;30778;53.574;7.770;2024-02-26T01:29:32;100431.81;;;1.11;57.72
45040;BME280;30778;53.574;7.770;2024-02-26T01:31:57;100430.09;;;1.13;57.29
45040;BME280;30778;53.574;7.770;2024-02-26T01:34:23;100424.91;;;1.15;57.22
45040;BME280;30778;53.574;7.770;2024-02-26T01:36:48;100434.34;;;1.17;57.38
45040;BME280;30778;53.574;7.770;2024-02-26T01:39:14;100427.56;;;1.05;57.56
45040;BME280;30778;53.574;7.770;2024-02-26T01:41:40;100428.59;;;0.77;58.08
45040;BME280;30778;53.574;7.770;2024-02-26T01:44:06;100423.38;;;0.89;57.60
45040;BME280;30778;53.574;7.770;2024-02-26T01:46:33;100423.38;;;0.89;57.65
45040;BME280;30778;53.574;7.770;2024-02-26T01:49:00;100421.66;;;0.89;57.71
45040;BME280;30778;53.574;7.770;2024-02-26T01:51:27;100432.84;;;0.88;58.10
45040;BME280;30778;53.574;7.770;2024-02-26T01:53:53;100434.53;;;0.89;57.77
45040;BME280;30778;53.574;7.770;2024-02-26T01:56:20;100437.88;;;1.02;57.52
45040;BME280;30778;53.574;7.770;2024-02-26T01:58:46;100442.16;;;1.06;57.47
45040;BME280;30778;53.574;7.770;2024-02-26T02:01:15;100436.16;;;1.03;57.34
45040;BME280;30778;53.574;7.770;2024-02-26T02:03:42;100436.13;;;1.07;57.54
45040;BME280;30778;53.574;7.770;2024-02-26T02:06:08;100437.81;;;1.10;57.46
45040;BME280;30778;53.574;7.770;2024-02-26T02:08:35;100445.50;;;1.16;57.63
45040;BME280;30778;53.574;7.770;2024-02-26T02:11:01;100436.84;;;1.26;57.36
45040;BME280;30778;53.574;7.770;2024-02-26T02:13:26;100436.16;;;1.03;57.39
45040;BME280;30778;53.574;7.770;2024-02-26T02:15:52;100440.53;;;0.92;57.87
45040;BME280;30778;53.574;7.770;2024-02-26T02:18:19;100439.00;;;0.64;57.92
45040;BME280;30778;53.574;7.770;2024-02-26T02:20:44;100435.53;;;0.65;58.19
45040;BME280;30778;53.574;7.770;2024-02-26T02:23:10;100427.84;;;0.61;58.50
45040;BME280;30778;53.574;7.770;2024-02-26T02:25:35;100434.69;;;0.65;58.30
45040;BME280;30778;53.574;7.770;2024-02-26T02:28:01;100437.28;;;0.60;58.64
45040;BME280;30778;53.574;7.770;2024-02-26T02:30:29;100435.56;;;0.62;58.06
45040;BME280;30778;53.574;7.770;2024-02-26T02:32:55;100435.53;;;0.65;57.77
45040;BME280;30778;53.574;7.770;2024-02-26T02:35:22;100430.44;;;0.56;58.08
45040;BME280;30778;53.574;7.770;2024-02-26T02:37:47;100434.69;;;0.65;57.99
45040;BME280;30778;53.574;7.770;2024-02-26T02:40:13;100438.13;;;0.62;57.71
45040;BME280;30778;53.574;7.770;2024-02-26T02:42:38;100445.84;;;0.62;57.84
45040;BME280;30778;53.574;7.770;2024-02-26T02:45:04;100439.00;;;0.58;57.71
45040;BME280;30778;53.574;7.770;2024-02-26T02:47:30;100438.19;;;0.52;57.99
45040;BME280;30778;53.574;7.770;2024-02-26T02:49:55;100435.75;;;0.25;58.80
45040;BME280;30778;53.574;7.770;2024-02-26T02:52:21;100437.38;;;0.39;58.45
45040;BME280;30778;53.574;7.770;2024-02-26T02:54:48;100435.66;;;0.47;58.51
45040;BME280;30778;53.574;7.770;2024-02-26T02:57:16;100443.38;;;0.44;58.48
45040;BME280;30778;53.574;7.770;2024-02-26T02:59:42;100445.97;;;0.44;58.38
45040;BME280;30778;53.574;7.770;2024-02-26T03:02:08;100442.53;;;0.39;58.37
45040;BME280;30778;53.574;7.770;2024-02-26T03:04:33;100446.00;;;0.35;58.34
45040;BME280;30778;53.574;7.770;2024-02-26T03:06:59;100443.47;;;0.28;58.63
45040;BME280;30778;53.574;7.770;2024-02-26T03:09:25;100451.09;;;0.41;58.06
45040;BME280;30778;53.574;7.770;2024-02-26T03:11:51;100457.13;;;0.37;58.23
45040;BME280;30778;53.574;7.770;2024-02-26T03:14:16;100463.97;;;0.39;57.93
45040;BME280;30778;53.574;7.770;2024-02-26T03:16:41;100461.38;;;0.42;57.48
45040;BME280;30778;53.574;7.770;2024-02-26T03:19:07;100455.41;;;0.42;57.44
45040;BME280;30778;53.574;7.770;2024-02-26T03:21:32;100466.53;;;0.41;57.58
45040;BME280;30778;53.574;7.770;2024-02-26T03:23:58;100470.84;;;0.36;57.31
45040;BME280;30778;53.574;7.770;2024-02-26T03:26:24;100473.38;;;0.39;56.98
45040;BME280;30778;53.574;7.770;2024-02-26T03:28:49;100476.88;;;0.28;57.23
45040;BME280;30778;53.574;7.770;2024-02-26T03:31:17;100476.91;;;0.19;58.08
45040;BME280;30778;53.574;7.770;2024-02-26T03:33:42;100485.44;;;0.23;57.82
45040;BME280;30778;53.574;7.770;2024-02-26T03:36:10;100489.75;;;0.19;57.91
45040;BME280;30778;53.574;7.770;2024-02-26T03:38:37;100488.91;;;0.17;57.66
45040;BME280;30778;53.574;7.770;2024-02-26T03:41:02;100488.06;;;0.15;57.70
45040;BME280;30778;53.574;7.770;2024-02-26T03:43:28;100503.47;;;0.15;57.36
45040;BME280;30778;53.574;7.770;2024-02-26T03:45:53;100500.03;;;0.19;57.46
45040;BME280;30778;53.574;7.770;2024-02-26T03:48:19;100499.16;;;0.22;57.32
45040;BME280;30778;53.574;7.770;2024-02-26T03:50:46;100511.19;;;0.21;57.21
45040;BME280;30778;53.574;7.770;2024-02-26T03:53:12;100510.31;;;0.22;57.43
45040;BME280;30778;53.574;7.770;2024-02-26T03:55:40;100510.28;;;0.30;57.48
45040;BME280;30778;53.574;7.770;2024-02-26T03:58:07;100523.97;;;0.32;57.12
45040;BME280;30778;53.574;7.770;2024-02-26T04:00:33;100531.69;;;0.34;56.91
45040;BME280;30778;53.574;7.770;2024-02-26T04:02:58;100524.00;;;0.29;57.11
45040;BME280;30778;53.574;7.770;2024-02-26T04:05:23;100528.28;;;0.30;56.98
45040;BME280;30778;53.574;7.770;2024-02-26T04:07:49;100540.31;;;0.23;56.64
45040;BME280;30778;53.574;7.770;2024-02-26T04:10:14;100536.03;;;0.18;57.27
45040;BME280;30778;53.574;7.770;2024-02-26T04:12:41;100536.03;;;0.12;57.33
45040;BME280;30778;53.574;7.770;2024-02-26T04:15:08;100540.31;;;0.11;57.36
45040;BME280;30778;53.574;7.770;2024-02-26T04:17:33;100542.06;;;-0.05;57.87
45040;BME280;30778;53.574;7.770;2024-02-26T04:19:59;100541.22;;;-0.10;58.46
45040;BME280;30778;53.574;7.770;2024-02-26T04:22:24;100537.75;;;0.00;58.19
45040;BME280;30778;53.574;7.770;2024-02-26T04:24:50;100542.00;;;0.23;58.13
45040;BME280;30778;53.574;7.770;2024-02-26T04:27:15;100543.75;;;0.19;57.76
45040;BME280;30778;53.574;7.770;2024-02-26T04:29:41;100547.16;;;0.24;57.58
45040;BME280;30778;53.574;7.770;2024-02-26T04:32:06;100554.03;;;0.13;58.41
45040;BME280;30778;53.574;7.770;2024-02-26T04:34:32;100550.56;;;0.19;58.32
45040;BME280;30778;53.574;7.770;2024-02-26T04:36:57;100554.88;;;0.21;58.42
45040;BME280;30778;53.574;7.770;2024-02-26T04:39:23;100554.00;;;0.28;58.53
45040;BME280;30778;53.574;7.770;2024-02-26T04:41:48;100560.84;;;0.19;58.77
45040;BME280;30778;53.574;7.770;2024-02-26T04:44:13;100560.81;;;0.36;58.09
45040;BME280;30778;53.574;7.770;2024-02-26T04:46:39;100556.47;;;0.50;57.45
45040;BME280;30778;53.574;7.770;2024-02-26T04:49:05;100571.94;;;0.48;57.54
45040;BME280;30778;53.574;7.770;2024-02-26T04:51:31;100580.50;;;0.51;57.46
45040;BME280;30778;53.574;7.770;2024-02-26T04:53:56;100574.50;;;0.48;57.74
45040;BME280;30778;53.574;7.770;2024-02-26T04:56:22;100579.63;;;0.50;57.59
45040;BME280;30778;53.574;7.770;2024-02-26T04:58:51;100590.78;;;0.47;57.59
45040;BME280;30778;53.574;7.770;2024-02-26T05:01:17;100592.50;;;0.52;57.55
45040;BME280;30778;53.574;7.770;2024-02-26T05:03:44;100593.34;;;0.54;57.09
45040;BME280;30778;53.574;7.770;2024-02-26T05:06:09;100594.22;;;0.53;57.21
45040;BME280;30778;53.574;7.770;2024-02-26T05:08:35;100593.34;;;0.52;57.05
45040;BME280;30778;53.574;7.770;2024-02-26T05:11:04;100600.19;;;0.50;56.94
45040;BME280;30778;53.574;7.770;2024-02-26T05:13:30;100595.09;;;0.41;57.40
45040;BME280;30778;53.574;7.770;2024-02-26T05:15:55;100595.97;;;0.37;57.52
45040;BME280;30778;53.574;7.770;2024-02-26T05:18:24;100600.22;;;0.36;57.57
45040;BME280;30778;53.574;7.770;2024-02-26T05:20:49;100603.69;;;0.31;57.65
45040;BME280;30778;53.574;7.770;2024-02-26T05:23:15;100609.69;;;0.33;58.03
45040;BME280;30778;53.574;7.770;2024-02-26T05:25:40;100601.09;;;0.35;57.83
45040;BME280;30778;53.574;7.770;2024-02-26T05:28:06;100609.66;;;0.36;57.97
45040;BME280;30778;53.574;7.770;2024-02-26T05:30:32;100607.13;;;0.25;58.02
45040;BME280;30778;53.574;7.770;2024-02-26T05:32:57;100598.53;;;0.37;57.93
45040;BME280;30778;53.574;7.770;2024-02-26T05:35:23;100600.25;;;0.38;57.81
45040;BME280;30778;53.574;7.770;2024-02-26T05:37:48;100613.09;;;0.36;57.94
45040;BME280;30778;53.574;7.770;2024-02-26T05:40:14;100613.94;;;0.44;57.57
45040;BME280;30778;53.574;7.770;2024-02-26T05:42:39;100608.81;;;0.40;57.47
45040;BME280;30778;53.574;7.770;2024-02-26T05:45:07;100616.53;;;0.35;57.68
45040;BME280;30778;53.574;7.770;2024-02-26T05:47:33;100613.94;;;0.44;57.50
45040;BME280;30778;53.574;7.770;2024-02-26T05:49:58;100616.53;;;0.35;57.46
45040;BME280;30778;53.574;7.770;2024-02-26T05:52:26;100614.81;;;0.34;57.59
45040;BME280;30778;53.574;7.770;2024-02-26T05:54:51;100615.69;;;0.30;58.11
45040;BME280;30778;53.574;7.770;2024-02-26T05:57:17;100618.25;;;0.28;58.06
45040;BME280;30778;53.574;7.770;2024-02-26T05:59:44;100613.97;;;0.31;58.27
45040;BME280;30778;53.574;7.770;2024-02-26T06:02:09;100625.97;;;0.24;59.00
45040;BME280;30778;53.574;7.770;2024-02-26T06:04:35;100627.66;;;0.36;58.45
45040;BME280;30778;53.574;7.770;2024-02-26T06:07:00;100626.81;;;0.40;58.17
45040;BME280;30778;53.574;7.770;2024-02-26T06:09:25;100624.19;;;0.52;57.57
45040;BME280;30778;53.574;7.770;2024-02-26T06:11:51;100631.94;;;0.46;57.99
45040;BME280;30778;53.574;7.770;2024-02-26T06:14:20;100625.94;;;0.48;57.61
45040;BME280;30778;53.574;7.770;2024-02-26T06:16:46;100633.63;;;0.45;57.50
45040;BME280;30778;53.574;7.770;2024-02-26T06:19:11;100643.06;;;0.45;57.45
45040;BME280;30778;53.574;7.770;2024-02-26T06:21:37;100641.34;;;0.50;57.17
45040;BME280;30778;53.574;7.770;2024-02-26T06:24:03;100643.09;;;0.48;56.80
45040;BME280;30778;53.574;7.770;2024-02-26T06:26:28;100647.41;;;0.37;57.47
45040;BME280;30778;53.574;7.770;2024-02-26T06:28:55;100655.09;;;0.44;57.20
45040;BME280;30778;53.574;7.770;2024-02-26T06:31:21;100655.94;;;0.53;56.88
45040;BME280;30778;53.574;7.770;2024-02-26T06:33:49;100654.22;;;0.47;57.11
45040;BME280;30778;53.574;7.770;2024-02-26T06:36:20;100666.22;;;0.42;57.33
45040;BME280;30778;53.574;7.770;2024-02-26T06:38:45;100664.50;;;0.41;56.99
45040;BME280;30778;53.574;7.770;2024-02-26T06:41:10;100667.06;;;0.50;57.00
45040;BME280;30778;53.574;7.770;2024-02-26T06:43:36;100666.22;;;0.51;57.09
45040;BME280;30778;53.574;7.770;2024-02-26T06:46:02;100668.78;;;0.56;57.08
45040;BME280;30778;53.574;7.770;2024-02-26T06:48:27;100670.47;;;0.64;57.10
45040;BME280;30778;53.574;7.770;2024-02-26T06:50:53;100673.06;;;0.71;56.52
45040;BME280;30778;53.574;7.770;2024-02-26T06:53:19;100677.34;;;0.67;56.82
45040;BME280;30778;53.574;7.770;2024-02-26T06:55:44;100676.47;;;0.69;57.18
45040;BME280;30778;53.574;7.770;2024-02-26T06:58:10;100688.47;;;0.67;57.01
45040;BME280;30778;53.574;7.770;2024-02-26T07:00:36;100685.91;;;0.75;56.94
45040;BME280;30778;53.574;7.770;2024-02-26T07:03:01;100681.56;;;0.83;56.87
45040;BME280;30778;53.574;7.770;2024-02-26T07:05:27;100690.19;;;0.67;57.18
45040;BME280;30778;53.574;7.770;2024-02-26T07:07:53;100687.59;;;0.88;56.80
45040;BME280;30778;53.574;7.770;2024-02-26T07:10:19;100693.56;;;0.92;56.59
45040;BME280;30778;53.574;7.770;2024-02-26T07:12:45;100696.97;;;0.94;56.81
45040;BME280;30778;53.574;7.770;2024-02-26T07:15:10;100698.66;;;1.06;56.58
45040;BME280;30778;53.574;7.770;2024-02-26T07:17:36;100698.63;;;1.12;56.20
45040;BME280;30778;53.574;7.770;2024-02-26T07:20:02;100702.09;;;1.06;56.66
45040;BME280;30778;53.574;7.770;2024-02-26T07:22:33;100708.09;;;1.11;56.27
45040;BME280;30778;53.574;7.770;2024-02-26T07:24:58;100706.38;;;1.14;56.60
45040;BME280;30778;53.574;7.770;2024-02-26T07:27:24;100705.50;;;1.18;56.15
45040;BME280;30778;53.574;7.770;2024-02-26T07:29:51;100714.09;;;1.12;56.27
45040;BME280;30778;53.574;7.770;2024-02-26T07:32:17;100714.97;;;1.09;56.70
45040;BME280;30778;53.574;7.770;2024-02-26T07:34:45;100720.09;;;1.09;56.20
45040;BME280;30778;53.574;7.770;2024-02-26T07:37:11;100720.97;;;1.11;56.38
45040;BME280;30778;53.574;7.770;2024-02-26T07:39:39;100731.22;;;1.28;56.38
45040;BME280;30778;53.574;7.770;2024-02-26T07:42:04;100730.25;;;1.52;55.61
45040;BME280;30778;53.574;7.770;2024-02-26T07:44:30;100728.50;;;1.67;55.19
45040;BME280;30778;53.574;7.770;2024-02-26T07:46:56;100726.75;;;1.73;55.38
45040;BME280;30778;53.574;7.770;2024-02-26T07:49:24;100738.75;;;1.70;54.75
45040;BME280;30778;53.574;7.770;2024-02-26T07:51:49;100734.53;;;1.63;55.56
45040;BME280;30778;53.574;7.770;2024-02-26T07:54:15;100738.75;;;1.75;55.38
45040;BME280;30778;53.574;7.770;2024-02-26T07:56:44;100745.63;;;1.74;55.32
45040;BME280;30778;53.574;7.770;2024-02-26T07:59:09;100749.13;;;1.61;55.69
45040;BME280;30778;53.574;7.770;2024-02-26T08:01:35;100751.63;;;1.78;54.79
45040;BME280;30778;53.574;7.770;2024-02-26T08:04:01;100755.84;;;1.89;54.59
45040;BME280;30778;53.574;7.770;2024-02-26T08:06:29;100760.16;;;1.89;55.09
45040;BME280;30778;53.574;7.770;2024-02-26T08:08:55;100751.53;;;1.93;54.88
45040;BME280;30778;53.574;7.770;2024-02-26T08:11:21;100760.09;;;1.95;55.31
45040;BME280;30778;53.574;7.770;2024-02-26T08:13:46;100766.91;;;2.05;55.14
45040;BME280;30778;53.574;7.770;2024-02-26T08:16:12;100769.53;;;2.01;55.24
45040;BME280;30778;53.574;7.770;2024-02-26T08:18:38;100777.16;;;2.13;54.99
45040;BME280;30778;53.574;7.770;2024-02-26T08:21:04;100776.38;;;2.02;55.54
45040;BME280;30778;53.574;7.770;2024-02-26T08:23:29;100784.13;;;2.02;55.20
45040;BME280;30778;53.574;7.770;2024-02-26T08:25:56;100791.97;;;1.86;55.81
45040;BME280;30778;53.574;7.770;2024-02-26T08:28:22;100797.84;;;2.07;55.24
45040;BME280;30778;53.574;7.770;2024-02-26T08:30:50;100791.06;;;1.92;55.37
45040;BME280;30778;53.574;7.770;2024-02-26T08:33:18;100797.06;;;1.92;55.05
45040;BME280;30778;53.574;7.770;2024-02-26T08:35:43;100796.91;;;2.17;54.35
45040;BME280;30778;53.574;7.770;2024-02-26T08:38:09;100792.78;;;1.90;54.67
45040;BME280;30778;53.574;7.770;2024-02-26T08:40:34;100796.19;;;1.98;54.90
45040;BME280;30778;53.574;7.770;2024-02-26T08:43:00;100786.81;;;1.83;55.39
45040;BME280;30778;53.574;7.770;2024-02-26T08:45:25;100791.09;;;1.87;55.32
45040;BME280;30778;53.574;7.770;2024-02-26T08:47:52;100789.25;;;2.11;54.80
45040;BME280;30778;53.574;7.770;2024-02-26T08:50:17;100790.09;;;2.08;54.99
45040;BME280;30778;53.574;7.770;2024-02-26T08:52:43;100796.97;;;2.11;54.90
45040;BME280;30778;53.574;7.770;2024-02-26T08:55:09;100795.16;;;2.25;54.46
45040;BME280;30778;53.574;7.770;2024-02-26T08:57:35;100801.09;;;2.35;54.29
45040;BME280;30778;53.574;7.770;2024-02-26T09:00:04;100800.13;;;2.50;54.07
45040;BME280;30778;53.574;7.770;2024-02-26T09:02:32;100800.38;;;2.16;54.52
45040;BME280;30778;53.574;7.770;2024-02-26T09:04:58;100797.66;;;2.34;54.06
45040;BME280;30778;53.574;7.770;2024-02-26T09:07:23;100806.38;;;2.17;54.30
45040;BME280;30778;53.574;7.770;2024-02-26T09:09:49;100818.47;;;2.07;54.32
45040;BME280;30778;53.574;7.770;2024-02-26T09:12:14;100819.09;;;2.47;53.97
45040;BME280;30778;53.574;7.770;2024-02-26T09:14:40;100831.06;;;2.56;53.88
45040;BME280;30778;53.574;7.770;2024-02-26T09:17:05;100836.91;;;2.78;52.82
45040;BME280;30778;53.574;7.770;2024-02-26T09:19:32;100838.66;;;2.76;53.21
45040;BME280;30778;53.574;7.770;2024-02-26T09:22:00;100830.81;;;2.87;52.68
45040;BME280;30778;53.574;7.770;2024-02-26T09:24:26;100833.72;;;2.44;53.38
45040;BME280;30778;53.574;7.770;2024-02-26T09:26:52;100828.59;;;2.38;53.72
45040;BME280;30778;53.574;7.770;2024-02-26T09:29:17;100842.31;;;2.46;53.81
45040;BME280;30778;53.574;7.770;2024-02-26T09:31:43;100849.75;;;2.87;52.69
45040;BME280;30778;53.574;7.770;2024-02-26T09:34:12;100858.25;;;2.98;52.25
45040;BME280;30778;53.574;7.770;2024-02-26T09:36:37;100856.38;;;3.14;52.33
45040;BME280;30778;53.574;7.770;2024-02-26T09:39:03;100868.19;;;3.42;52.18
45040;BME280;30778;53.574;7.770;2024-02-26T09:41:29;100874.31;;;3.36;52.06
45040;BME280;30778;53.574;7.770;2024-02-26T09:43:57;100865.72;;;3.26;51.94
45040;BME280;30778;53.574;7.770;2024-02-26T09:46:27;100867.44;;;3.32;51.84
45040;BME280;30778;53.574;7.770;2024-02-26T09:48:56;100857.69;;;3.58;51.09
45040;BME280;30778;53.574;7.770;2024-02-26T09:51:23;100865.47;;;3.57;51.15
45040;BME280;30778;53.574;7.770;2024-02-26T09:53:52;100865.13;;;3.86;50.69
45040;BME280;30778;53.574;7.770;2024-02-26T09:56:18;100881.88;;;3.51;50.79
45040;BME280;30778;53.574;7.770;2024-02-26T09:58:44;100876.75;;;3.47;51.62
45040;BME280;30778;53.574;7.770;2024-02-26T10:01:16;100875.00;;;3.50;51.15
45040;BME280;30778;53.574;7.770;2024-02-26T10:03:43;100874.81;;;3.69;50.57
45040;BME280;30778;53.574;7.770;2024-02-26T10:06:12;100874.41;;;3.19;51.50
45040;BME280;30778;53.574;7.770;2024-02-26T10:08:37;100882.22;;;3.14;51.67
45040;BME280;30778;53.574;7.770;2024-02-26T10:11:05;100883.41;;;2.73;53.41
45040;BME280;30778;53.574;7.770;2024-02-26T10:13:32;100875.84;;;2.44;54.07
45040;BME280;30778;53.574;7.770;2024-02-26T10:15:57;100887.03;;;2.42;54.22
45040;BME280;30778;53.574;7.770;2024-02-26T10:18:24;100892.28;;;2.26;54.35
45040;BME280;30778;53.574;7.770;2024-02-26T10:20:59;100894.84;;;2.26;54.19
45040;BME280;30778;53.574;7.770;2024-02-26T10:23:26;100895.69;;;2.33;53.34
45040;BME280;30778;53.574;7.770;2024-02-26T10:25:55;100898.47;;;1.91;54.83
45040;BME280;30778;53.574;7.770;2024-02-26T10:28:22;100900.91;;;2.27;54.50
45040;BME280;30778;53.574;7.770;2024-02-26T10:30:51;100901.69;;;2.37;53.94
45040;BME280;30778;53.574;7.770;2024-02-26T10:33:19;100902.19;;;2.91;53.12
45040;BME280;30778;53.574;7.770;2024-02-26T10:35:48;100899.00;;;2.55;53.09
45040;BME280;30778;53.574;7.770;2024-02-26T10:38:13;100899.78;;;2.69;53.32
45040;BME280;30778;53.574;7.770;2024-02-26T10:40:42;100908.41;;;2.65;54.10
45040;BME280;30778;53.574;7.770;2024-02-26T10:43:08;100904.78;;;2.92;53.88
45040;BME280;30778;53.574;7.770;2024-02-26T10:45:33;100912.44;;;3.00;53.37
45040;BME280;30778;53.574;7.770;2024-02-26T10:48:01;100909.97;;;2.88;54.05
45040;BME280;30778;53.574;7.770;2024-02-26T10:50:26;100912.88;;;2.39;54.28
45040;BME280;30778;53.574;7.770;2024-02-26T10:52:55;100922.31;;;2.43;54.64
45040;BME280;30778;53.574;7.770;2024-02-26T10:55:22;100926.63;;;2.38;54.79
45040;BME280;30778;53.574;7.770;2024-02-26T10:57:47;100927.44;;;2.46;54.14
45040;BME280;30778;53.574;7.770;2024-02-26T11:00:16;100931.59;;;2.71;52.93
45040;BME280;30778;53.574;7.770;2024-02-26T11:02:44;100946.38;;;2.42;54.44
45040;BME280;30778;53.574;7.770;2024-02-26T11:05:11;100949.81;;;2.38;54.80
45040;BME280;30778;53.574;7.770;2024-02-26T11:07:37;100948.09;;;2.49;54.65
45040;BME280;30778;53.574;7.770;2024-02-26T11:10:04;100952.63;;;1.68;55.89
45040;BME280;30778;53.574;7.770;2024-02-26T11:12:32;100952.66;;;1.67;56.38
45040;BME280;30778;53.574;7.770;2024-02-26T11:14:59;100958.69;;;1.58;56.09
45040;BME280;30778;53.574;7.770;2024-02-26T11:17:28;100961.25;;;1.60;56.37
45040;BME280;30778;53.574;7.770;2024-02-26T11:19:57;100961.19;;;1.89;56.31
45040;BME280;30778;53.574;7.770;2024-02-26T11:22:27;100957.69;;;2.04;55.95
45040;BME280;30778;53.574;7.770;2024-02-26T11:24:55;100964.59;;;1.97;56.16
45040;BME280;30778;53.574;7.770;2024-02-26T11:27:43;100968.97;;;1.69;56.30
45040;BME280;30778;53.574;7.770;2024-02-26T11:30:13;100964.66;;;1.32;57.62
45040;BME280;30778;53.574;7.770;2024-02-26T11:32:44;100967.25;;;1.26;57.17
45040;BME280;30778;53.574;7.770;2024-02-26T11:35:10;100968.97;;;1.50;57.12
45040;BME280;30778;53.574;7.770;2024-02-26T11:37:39;100968.94;;;1.81;56.35
45040;BME280;30778;53.574;7.770;2024-02-26T11:40:10;100972.34;;;2.00;55.92
45040;BME280;30778;53.574;7.770;2024-02-26T11:42:43;100977.31;;;2.48;55.45
45040;BME280;30778;53.574;7.770;2024-02-26T11:48:20;100981.69;;;2.26;55.71
45040;BME280;30778;53.574;7.770;2024-02-26T11:50:47;100972.31;;;2.08;55.75
45040;BME280;30778;53.574;7.770;2024-02-26T11:53:32;100977.50;;;1.92;56.03
45040;BME280;30778;53.574;7.770;2024-02-26T11:58:48;100989.50;;;2.12;55.82
45040;BME280;30778;53.574;7.770;2024-02-26T12:01:50;101002.38;;;2.10;55.99
45040;BME280;30778;53.574;7.770;2024-02-26T12:06:53;100991.22;;;2.05;56.21
45040;BME280;30778;53.574;7.770;2024-02-26T12:09:37;100994.63;;;2.21;55.71
45040;BME280;30778;53.574;7.770;2024-02-26T12:12:07;101007.56;;;2.03;56.26
45040;BME280;30778;53.574;7.770;2024-02-26T12:14:34;101005.88;;;1.72;57.15
45040;BME280;30778;53.574;7.770;2024-02-26T12:17:00;101002.47;;;1.73;57.05
45040;BME280;30778;53.574;7.770;2024-02-26T12:19:27;101006.72;;;1.84;57.03
45040;BME280;30778;53.574;7.770;2024-02-26T12:21:53;101007.59;;;1.92;56.32
45040;BME280;30778;53.574;7.770;2024-02-26T12:24:20;101013.63;;;1.86;56.58
45040;BME280;30778;53.574;7.770;2024-02-26T12:26:46;101020.47;;;1.97;56.13
45040;BME280;30778;53.574;7.770;2024-02-26T12:29:12;101020.50;;;1.72;56.88
45040;BME280;30778;53.574;7.770;2024-02-26T12:31:40;101023.06;;;1.83;56.70
45040;BME280;30778;53.574;7.770;2024-02-26T12:34:06;101029.00;;;2.19;56.20
45040;BME280;30778;53.574;7.770;2024-02-26T12:36:36;101029.03;;;2.03;55.85
45040;BME280;30778;53.574;7.770;2024-02-26T12:39:05;101038.44;;;2.27;55.54
45040;BME280;30778;53.574;7.770;2024-02-26T12:41:37;101037.50;;;2.56;54.52
45040;BME280;30778;53.574;7.770;2024-02-26T12:44:03;101035.63;;;2.86;54.18
45040;BME280;30778;53.574;7.770;2024-02-26T12:46:28;101038.16;;;2.98;53.96
45040;BME280;30778;53.574;7.770;2024-02-26T12:48:58;101038.91;;;3.12;53.76
45040;BME280;30778;53.574;7.770;2024-02-26T12:51:26;101039.06;;;2.86;53.45
45040;BME280;30778;53.574;7.770;2024-02-26T12:53:53;101046.09;;;2.58;54.30
45040;BME280;30778;53.574;7.770;2024-02-26T12:56:20;101041.00;;;2.38;54.44
45040;BME280;30778;53.574;7.770;2024-02-26T12:58:49;101052.06;;;2.62;54.59
45040;BME280;30778;53.574;7.770;2024-02-26T13:01:18;101046.09;;;2.58;53.87
45040;BME280;30778;53.574;7.770;2024-02-26T13:03:44;101048.69;;;2.53;54.19
45040;BME280;30778;53.574;7.770;2024-02-26T13:06:10;101049.44;;;2.72;53.68